Time;durP1;ratioP1;P1;durP2;ratioP2;P2;SDS_P1;SDS_P2;PMS_P1;PMS_P2;Temp;Humidity;BMP_temperature;BMP_pressure;BME280_temperature;BME280_humidity;BME280_pressure;Samples;Min_cycle;Max_cycle;Signal;HPM_P1;HPM_P2
2021/11/10 00:00:28;;;;;;;11.23;9.83;;;6.60;99.90;;;;;;10454148;28;20201;-81
2021/11/10 00:05:30;;;;;;;11.43;9.73;;;6.70;99.90;;;;;;10453146;28;20729;-80
2021/11/10 00:10:35;;;;;;;11.30;10.10;;;6.60;99.90;;;;;;10453551;28;20225;-80
2021/11/10 00:15:37;;;;;;;11.10;9.80;;;6.60;99.90;;;;;;10436556;28;20239;-80
2021/11/10 00:20:39;;;;;;;10.37;9.53;;;6.60;99.90;;;;;;10453040;28;20217;-80
2021/11/10 00:25:43;;;;;;;11.10;9.93;;;6.60;99.90;;;;;;10453198;28;20240;-79
2021/11/10 00:30:45;;;;;;;10.80;9.80;;;6.60;99.90;;;;;;10455461;28;20230;-79
2021/11/10 00:35:47;;;;;;;12.13;10.80;;;6.50;99.90;;;;;;10437037;28;20598;-80
2021/11/10 00:40:51;;;;;;;10.93;9.70;;;6.50;99.90;;;;;;10456303;28;20207;-80
2021/11/10 00:45:55;;;;;;;10.13;9.20;;;6.50;99.90;;;;;;10456060;28;20705;-80
2021/11/10 00:50:57;;;;;;;11.00;9.97;;;6.50;99.90;;;;;;10449787;28;20650;-80
2021/11/10 00:56:01;;;;;;;11.63;9.83;;;6.40;99.90;;;;;;10438867;28;20228;-80
2021/11/10 01:01:04;;;;;;;11.40;10.20;;;6.30;99.90;;;;;;10456136;28;20303;-80
2021/11/10 01:06:07;;;;;;;11.93;10.77;;;6.30;99.90;;;;;;10440472;28;20221;-81
2021/11/10 01:11:11;;;;;;;11.50;10.47;;;6.30;99.90;;;;;;10456836;28;20220;-80
2021/11/10 01:16:15;;;;;;;11.43;10.33;;;6.40;99.90;;;;;;10456330;28;20657;-80
2021/11/10 01:21:19;;;;;;;12.10;10.67;;;6.40;99.90;;;;;;10456571;28;20200;-81
2021/11/10 01:26:22;;;;;;;11.30;10.30;;;6.40;99.90;;;;;;10441781;28;20229;-80
2021/11/10 01:31:25;;;;;;;10.83;9.83;;;6.30;99.90;;;;;;10454875;28;20224;-79
2021/11/10 01:36:28;;;;;;;12.33;10.70;;;6.30;99.90;;;;;;10457357;28;20223;-80
2021/11/10 01:41:38;;;;;;;12.03;10.83;;;6.30;99.90;;;;;;10461196;28;20270;-80
2021/11/10 01:46:40;;;;;;;14.27;12.80;;;6.20;99.90;;;;;;10442631;28;20661;-80
2021/11/10 01:51:44;;;;;;;12.40;11.20;;;6.20;99.90;;;;;;10460303;28;20217;-80
2021/11/10 01:56:49;;;;;;;14.47;12.90;;;6.20;99.90;;;;;;10460567;28;20197;-79
2021/11/10 02:01:52;;;;;;;13.30;12.00;;;6.20;99.90;;;;;;10455746;28;20232;-80
2021/11/10 02:06:54;;;;;;;14.80;13.40;;;6.10;99.90;;;;;;10457589;28;20424;-80
2021/11/10 02:12:00;;;;;;;15.07;13.60;;;6.10;99.90;;;;;;10460139;28;20228;-81
2021/11/10 02:17:07;;;;;;;14.13;12.83;;;6.10;99.90;;;;;;10441620;28;20228;-79
2021/11/10 02:22:14;;;;;;;16.20;14.60;;;6.00;99.90;;;;;;10458923;28;20225;-80
2021/11/10 02:27:19;;;;;;;16.20;14.57;;;5.90;99.90;;;;;;10458883;28;20243;-80
2021/11/10 02:32:22;;;;;;;17.50;15.77;;;5.90;99.90;;;;;;10442139;28;20763;-80
2021/11/10 02:37:25;;;;;;;15.77;14.20;;;5.90;99.90;;;;;;10459238;28;20804;-80
2021/11/10 02:42:27;;;;;;;17.57;15.87;;;5.80;99.90;;;;;;10460018;28;20292;-81
2021/11/10 02:47:29;;;;;;;17.90;16.20;;;5.80;99.90;;;;;;10461049;28;20197;-80
2021/11/10 02:52:33;;;;;;;18.90;16.30;;;5.80;99.90;;;;;;10460857;28;20233;-80
2021/11/10 02:57:35;;;;;;;21.70;17.03;;;5.80;99.90;;;;;;10462769;28;20664;-81
2021/11/10 03:02:37;;;;;;;16.33;14.70;;;5.90;99.90;;;;;;10461672;28;20221;-80
2021/11/10 03:07:45;;;;;;;17.40;15.67;;;5.90;99.90;;;;;;10461852;28;20205;-79
2021/11/10 03:12:47;;;;;;;19.40;17.50;;;5.90;99.90;;;;;;10442122;28;20681;-79
2021/11/10 03:17:55;;;;;;;20.30;18.33;;;5.90;99.90;;;;;;10437857;28;20205;-80
2021/11/10 03:23:00;;;;;;;20.00;17.73;;;5.90;99.90;;;;;;10454854;28;20219;-79
2021/11/10 03:28:03;;;;;;;16.70;15.00;;;5.90;99.90;;;;;;10455044;28;20288;-80
2021/11/10 03:33:05;;;;;;;19.20;17.27;;;5.90;99.90;;;;;;10437747;28;20615;-80
2021/11/10 03:38:10;;;;;;;16.77;15.30;;;6.00;99.90;;;;;;10456033;28;20288;-79
2021/11/10 03:43:14;;;;;;;18.27;16.33;;;5.90;99.90;;;;;;10456235;28;20225;-80
2021/11/10 03:48:16;;;;;;;18.67;16.93;;;5.90;99.90;;;;;;10456012;28;20205;-80
2021/11/10 03:53:20;;;;;;;19.67;16.60;;;5.90;99.90;;;;;;10456126;28;20252;-80
2021/11/10 03:58:23;;;;;;;17.90;15.80;;;5.90;99.90;;;;;;10439598;28;20206;-80
2021/11/10 04:03:31;;;;;;;18.80;16.80;;;6.00;99.90;;;;;;10456825;28;20324;-80
2021/11/10 04:08:35;;;;;;;18.37;16.50;;;6.10;99.90;;;;;;10457585;28;20250;-79
2021/11/10 04:13:37;;;;;;;18.97;16.97;;;6.10;99.90;;;;;;10440908;28;20279;-80
2021/11/10 04:18:40;;;;;;;18.47;16.53;;;6.10;99.90;;;;;;10458317;28;20207;-81
2021/11/10 04:23:54;;;;;;;18.50;16.73;;;6.10;99.90;;;;;;10457916;28;20244;-80
2021/11/10 04:28:59;;;;;;;17.10;15.00;;;6.10;99.90;;;;;;10452857;28;20256;-80
2021/11/10 04:34:03;;;;;;;19.23;17.23;;;6.10;99.90;;;;;;10445653;28;20247;-80
2021/11/10 04:39:07;;;;;;;17.67;15.93;;;6.00;99.90;;;;;;10454630;28;20251;-80
2021/11/10 04:44:11;;;;;;;22.13;18.63;;;6.00;99.90;;;;;;10455876;28;20723;-80
2021/11/10 04:49:17;;;;;;;19.37;17.43;;;5.90;99.90;;;;;;10437099;28;20221;-80
2021/11/10 04:54:21;;;;;;;18.27;16.50;;;5.90;99.90;;;;;;10453102;28;20299;-79
2021/11/10 04:59:23;;;;;;;19.57;17.57;;;5.90;99.90;;;;;;10437113;28;20289;-80
2021/11/10 05:04:26;;;;;;;16.80;15.20;;;5.90;99.90;;;;;;10453735;28;20304;-80
2021/11/10 05:09:30;;;;;;;17.67;16.00;;;5.90;99.90;;;;;;10447721;28;20217;-79
2021/11/10 05:14:34;;;;;;;17.83;15.83;;;5.80;99.90;;;;;;10454797;28;20232;-80
2021/11/10 05:19:38;;;;;;;17.90;15.77;;;5.80;99.90;;;;;;10459789;28;20204;-79
2021/11/10 05:24:42;;;;;;;18.93;15.90;;;5.70;99.90;;;;;;10460584;28;20229;-79
2021/11/10 05:29:44;;;;;;;18.60;16.67;;;5.50;99.90;;;;;;10461355;28;20223;-79
2021/11/10 05:34:48;;;;;;;17.07;15.27;;;5.50;99.90;;;;;;10443389;28;20229;-80
2021/11/10 05:39:51;;;;;;;16.50;14.80;;;5.50;99.90;;;;;;10461671;28;20202;-80
2021/11/10 05:44:54;;;;;;;18.73;16.80;;;5.50;99.90;;;;;;10459787;28;20221;-79
2021/11/10 05:49:56;;;;;;;17.57;15.87;;;5.50;99.90;;;;;;10461734;28;20727;-80
2021/11/10 05:55:00;;;;;;;18.63;16.73;;;5.50;99.90;;;;;;10456593;28;20225;-82
2021/11/10 06:00:02;;;;;;;17.67;14.87;;;5.50;99.90;;;;;;10456412;28;20194;-82
2021/11/10 06:05:05;;;;;;;17.50;14.90;;;5.60;99.90;;;;;;10453283;28;20284;-82
2021/11/10 06:10:09;;;;;;;17.17;15.53;;;5.60;99.90;;;;;;10440385;28;20210;-81
2021/11/10 06:15:12;;;;;;;18.43;16.70;;;5.60;99.90;;;;;;10447209;28;20213;-82
2021/11/10 06:20:15;;;;;;;19.17;15.83;;;5.60;99.90;;;;;;10446494;28;20291;-82
2021/11/10 06:25:19;;;;;;;18.90;17.10;;;5.60;99.90;;;;;;10430463;28;20228;-82
2021/11/10 06:30:21;;;;;;;18.03;16.23;;;5.60;99.90;;;;;;10422734;28;20202;-81
2021/11/10 06:35:23;;;;;;;17.80;16.00;;;5.60;99.90;;;;;;10456265;28;20229;-82
2021/11/10 06:40:27;;;;;;;17.40;15.57;;;5.60;99.90;;;;;;10453506;28;20205;-81
2021/11/10 06:45:29;;;;;;;19.43;17.47;;;5.70;99.90;;;;;;10454864;28;20316;-81
2021/11/10 06:50:31;;;;;;;20.67;15.70;;;5.70;99.90;;;;;;10454774;28;20221;-81
2021/11/10 06:55:34;;;;;;;20.30;18.20;;;5.70;99.90;;;;;;10454974;28;20217;-81
2021/11/10 07:00:37;;;;;;;23.23;19.50;;;5.70;99.90;;;;;;10456158;28;20248;-82
2021/11/10 07:05:39;;;;;;;19.77;17.87;;;5.80;99.90;;;;;;10464796;28;20217;-82
2021/11/10 07:10:43;;;;;;;20.83;18.10;;;5.90;99.90;;;;;;10463950;28;20260;-81
2021/11/10 07:15:45;;;;;;;18.67;16.77;;;5.90;99.90;;;;;;10464820;28;20339;-82
2021/11/10 07:20:48;;;;;;;19.30;17.03;;;6.10;99.90;;;;;;10441996;28;20205;-82
2021/11/10 07:25:51;;;;;;;18.67;16.10;;;6.10;99.90;;;;;;10440735;28;20256;-82
2021/11/10 07:30:53;;;;;;;19.10;16.90;;;6.20;99.90;;;;;;10456490;28;20338;-82
2021/11/10 07:35:55;;;;;;;21.50;18.80;;;6.30;99.90;;;;;;10446261;28;20225;-82
2021/11/10 07:41:01;;;;;;;19.70;17.70;;;6.30;99.90;;;;;;10466254;28;20197;-82
2021/11/10 07:46:10;;;;;;;23.00;20.43;;;6.40;99.90;;;;;;10462673;28;20228;-82
2021/11/10 07:51:12;;;;;;;23.00;18.67;;;6.50;99.90;;;;;;10447497;28;20323;-81
2021/11/10 07:56:16;;;;;;;24.77;18.07;;;6.60;99.90;;;;;;10455793;28;20223;-82
2021/11/10 08:01:19;;;;;;;22.13;19.73;;;6.70;99.90;;;;;;10436103;28;20208;-81
2021/11/10 08:06:21;;;;;;;20.90;18.50;;;6.70;99.90;;;;;;10454203;28;20225;-82
2021/11/10 08:11:24;;;;;;;19.83;17.90;;;6.90;99.90;;;;;;10453079;28;20602;-82
2021/11/10 08:16:26;;;;;;;21.30;18.60;;;6.90;99.90;;;;;;10436104;28;20270;-81
2021/11/10 08:21:29;;;;;;;25.03;19.33;;;7.10;99.90;;;;;;10457249;28;20189;-82
2021/11/10 08:26:33;;;;;;;22.83;20.20;;;7.20;99.90;;;;;;10454694;28;20213;-81
2021/11/10 08:31:35;;;;;;;20.70;18.70;;;7.30;99.90;;;;;;10434918;28;20225;-81
2021/11/10 08:36:37;;;;;;;23.40;20.93;;;7.40;99.90;;;;;;10450972;28;20197;-82
2021/11/10 08:41:42;;;;;;;23.20;19.93;;;7.50;99.90;;;;;;10451925;28;20280;-82
2021/11/10 08:46:45;;;;;;;21.93;19.83;;;7.60;99.90;;;;;;10449621;28;20209;-82
2021/11/10 08:51:47;;;;;;;21.87;19.77;;;7.70;99.90;;;;;;10448618;28;20256;-81
2021/11/10 08:56:50;;;;;;;22.40;20.10;;;7.90;99.90;;;;;;10436798;28;20553;-80
2021/11/10 09:01:54;;;;;;;22.60;20.20;;;7.90;99.90;;;;;;10436634;28;20587;-82
2021/11/10 09:06:57;;;;;;;21.37;19.10;;;8.00;99.90;;;;;;10455610;28;20209;-82
2021/11/10 09:12:00;;;;;;;22.10;19.90;;;8.10;99.90;;;;;;10455053;28;20319;-82
2021/11/10 09:17:02;;;;;;;23.67;21.23;;;8.20;99.90;;;;;;10438832;28;20209;-82
2021/11/10 09:22:05;;;;;;;23.97;21.43;;;8.20;99.90;;;;;;10455405;28;20293;-82
2021/11/10 09:27:08;;;;;;;23.67;21.17;;;8.30;99.90;;;;;;10457425;28;20236;-81
2021/11/10 09:32:11;;;;;;;23.67;18.70;;;8.50;99.90;;;;;;10456911;28;20700;-81
2021/11/10 09:37:13;;;;;;;23.23;19.03;;;8.60;99.90;;;;;;10452354;28;20203;-81
2021/11/10 09:42:18;;;;;;;22.90;19.10;;;8.80;99.90;;;;;;10451743;28;20744;-81
2021/11/10 09:47:20;;;;;;;20.47;18.43;;;8.90;99.90;;;;;;10450622;28;20637;-81
2021/11/10 09:52:22;;;;;;;21.80;19.50;;;8.90;99.90;;;;;;10433028;28;20272;-81
2021/11/10 09:57:26;;;;;;;24.97;19.10;;;9.00;99.90;;;;;;10453457;28;20201;-81
2021/11/10 10:02:29;;;;;;;22.80;19.77;;;9.10;99.90;;;;;;10432583;28;20224;-82
2021/11/10 10:07:31;;;;;;;22.70;20.10;;;9.20;99.90;;;;;;10434491;28;20593;-82
2021/11/10 10:12:35;;;;;;;21.97;17.33;;;9.30;99.90;;;;;;10431788;28;20237;-82
2021/11/10 10:17:40;;;;;;;24.23;20.53;;;9.30;99.90;;;;;;10450293;28;20656;-82
2021/11/10 10:22:47;;;;;;;20.57;18.00;;;9.40;99.90;;;;;;10459477;28;20244;-82
2021/11/10 10:27:56;;;;;;;22.77;19.47;;;9.50;99.90;;;;;;10457882;28;20205;-81
2021/11/10 10:33:01;;;;;;;21.33;19.23;;;9.50;99.90;;;;;;10427395;28;20712;-83
2021/11/10 10:38:05;;;;;;;22.10;17.20;;;9.60;99.90;;;;;;10445763;28;20269;-82
2021/11/10 10:43:09;;;;;;;22.20;19.90;;;9.70;99.90;;;;;;10455389;28;20304;-82
2021/11/10 10:48:14;;;;;;;21.57;19.27;;;9.80;99.90;;;;;;10442005;28;20224;-83
2021/11/10 10:53:20;;;;;;;21.60;19.30;;;9.80;99.90;;;;;;10452214;28;20288;-83
2021/11/10 10:58:35;;;;;;;20.20;18.20;;;9.90;99.90;;;;;;10441797;28;20263;-83
2021/11/10 11:03:37;;;;;;;24.63;20.13;;;9.90;99.90;;;;;;10461689;28;20247;-83
2021/11/10 11:08:39;;;;;;;22.77;19.87;;;10.00;99.90;;;;;;10449664;28;20576;-82
2021/11/10 11:13:49;;;;;;;23.97;19.67;;;10.00;99.90;;;;;;10440402;28;20255;-82
2021/11/10 11:19:10;;;;;;;19.60;17.70;;;10.00;99.90;;;;;;10454876;28;20212;-82
2021/11/10 11:24:26;;;;;;;22.90;20.50;;;10.00;99.90;;;;;;10455760;28;20237;-82
2021/11/10 11:29:30;;;;;;;23.47;19.70;;;10.00;99.90;;;;;;10454603;28;20209;-82
2021/11/10 11:34:47;;;;;;;22.53;20.13;;;10.10;99.90;;;;;;10437921;28;20649;-82
2021/11/10 11:39:51;;;;;;;22.30;19.53;;;10.10;99.90;;;;;;10454798;28;20239;-81
2021/11/10 11:44:57;;;;;;;23.50;21.00;;;10.00;99.90;;;;;;10437763;28;20221;-82
2021/11/10 11:50:03;;;;;;;21.80;19.50;;;10.00;99.90;;;;;;10458263;28;20201;-82
2021/11/10 11:55:21;;;;;;;24.00;21.50;;;10.10;99.90;;;;;;10456821;28;20665;-82
2021/11/10 12:00:25;;;;;;;25.17;22.47;;;10.10;99.90;;;;;;10455462;28;20537;-82
2021/11/10 12:05:29;;;;;;;23.40;20.07;;;10.10;99.90;;;;;;10474368;22;20221;-83
2021/11/10 12:10:43;;;;;;;24.03;21.00;;;10.20;99.90;;;;;;10440939;28;20209;-83
2021/11/10 12:16:15;;;;;;;22.17;19.90;;;10.20;99.90;;;;;;10461824;28;20232;-82
2021/11/10 12:21:21;;;;;;;30.10;21.53;;;10.20;99.90;;;;;;10436986;28;20201;-82
2021/11/10 12:26:27;;;;;;;22.03;19.83;;;10.20;99.90;;;;;;10437144;28;20228;-82
2021/11/10 12:31:32;;;;;;;23.07;19.47;;;10.20;99.90;;;;;;10440027;28;20228;-82
2021/11/10 12:36:52;;;;;;;22.17;19.80;;;10.10;99.90;;;;;;10460717;28;20216;-83
2021/11/10 12:42:00;;;;;;;22.77;20.47;;;10.10;99.90;;;;;;10456613;28;20207;-82
2021/11/10 12:47:04;;;;;;;21.90;19.70;;;10.20;99.90;;;;;;10461169;28;20693;-83
2021/11/10 12:52:15;;;;;;;80.00;25.23;;;10.20;99.90;;;;;;10455428;28;20232;-82
2021/11/10 12:57:31;;;;;;;24.33;20.77;;;10.20;99.90;;;;;;10456600;28;20201;-82
2021/11/10 13:02:34;;;;;;;24.93;22.20;;;10.10;99.90;;;;;;10455904;28;20290;-82
2021/11/10 13:07:44;;;;;;;21.83;19.67;;;10.10;99.90;;;;;;10458153;28;20232;-82
2021/11/10 13:12:47;;;;;;;24.17;21.50;;;10.20;99.90;;;;;;10460769;28;20236;-83
2021/11/10 13:17:53;;;;;;;23.00;20.50;;;10.20;99.90;;;;;;10458091;28;20205;-83
2021/11/10 13:22:55;;;;;;;24.07;21.13;;;10.20;99.90;;;;;;10457601;28;20270;-83
2021/11/10 13:27:59;;;;;;;21.90;19.60;;;10.20;99.90;;;;;;10438542;28;20205;-83
2021/11/10 13:33:25;;;;;;;21.63;19.33;;;10.30;99.90;;;;;;10449447;28;20225;-82
2021/11/10 13:38:43;;;;;;;23.13;20.50;;;10.30;99.90;;;;;;10469881;28;20228;-82
2021/11/10 13:43:48;;;;;;;23.27;20.50;;;10.30;99.90;;;;;;10451474;28;20221;-82
2021/11/10 13:49:07;;;;;;;21.83;19.67;;;10.30;99.90;;;;;;10451578;28;20230;-83
2021/11/10 13:54:12;;;;;;;20.97;19.00;;;10.30;99.90;;;;;;10453552;28;20229;-83
2021/11/10 13:59:17;;;;;;;23.30;20.90;;;10.20;99.90;;;;;;10472262;28;20212;-82
2021/11/10 14:04:22;;;;;;;24.70;22.10;;;10.20;99.90;;;;;;10453434;28;20593;-82
2021/11/10 14:09:24;;;;;;;27.23;21.20;;;10.20;99.90;;;;;;10470289;28;20197;-83
2021/11/10 14:14:33;;;;;;;27.73;24.10;;;10.10;99.90;;;;;;10481273;28;20650;-82
2021/11/10 14:19:36;;;;;;;23.67;21.13;;;10.10;99.90;;;;;;10451432;28;20259;-82
2021/11/10 14:24:45;;;;;;;28.40;25.30;;;10.10;99.90;;;;;;10467601;28;20213;-83
2021/11/10 14:29:53;;;;;;;25.83;23.13;;;10.10;99.90;;;;;;10434899;28;20205;-83
2021/11/10 14:35:00;;;;;;;23.70;21.40;;;10.10;99.90;;;;;;10448860;28;20233;-82
2021/11/10 14:40:33;;;;;;;26.23;23.50;;;10.10;99.90;;;;;;10448834;28;20205;-83
2021/11/10 14:45:38;;;;;;;26.67;24.10;;;10.20;99.90;;;;;;10462700;28;20228;-82
2021/11/10 14:50:42;;;;;;;28.93;25.80;;;10.20;99.90;;;;;;10456844;28;20229;-82
2021/11/10 14:55:46;;;;;;;28.43;25.27;;;10.30;99.90;;;;;;10490482;28;20225;-82
2021/11/10 15:00:50;;;;;;;30.00;26.70;;;10.30;99.90;;;;;;10439792;28;20233;-82
2021/11/10 15:05:55;;;;;;;27.20;24.10;;;10.30;99.90;;;;;;10442658;28;20237;-83
2021/11/10 15:11:01;;;;;;;26.87;24.17;;;10.30;99.90;;;;;;10427640;28;20758;-81
2021/11/10 15:16:04;;;;;;;25.03;22.40;;;10.30;99.90;;;;;;10439578;28;20213;-82
2021/11/10 15:21:10;;;;;;;26.90;24.17;;;10.30;99.90;;;;;;10444862;28;20673;-82
2021/11/10 15:26:13;;;;;;;26.63;22.03;;;10.30;99.90;;;;;;10451366;28;20221;-82
2021/11/10 15:31:16;;;;;;;23.20;20.77;;;10.20;99.90;;;;;;10470201;28;20622;-82
2021/11/10 15:36:20;;;;;;;26.63;21.57;;;10.20;99.90;;;;;;10428871;28;20303;-82
2021/11/10 15:41:22;;;;;;;21.90;19.67;;;10.10;99.90;;;;;;10458245;28;20259;-82
2021/11/10 15:46:24;;;;;;;22.40;19.47;;;10.00;99.90;;;;;;10426265;28;20700;-82
2021/11/10 15:51:28;;;;;;;22.97;20.50;;;9.90;99.90;;;;;;10443590;28;20209;-82
2021/11/10 15:56:30;;;;;;;25.60;21.93;;;9.70;99.90;;;;;;10446104;28;20218;-82
2021/11/10 16:01:33;;;;;;;31.10;24.20;;;9.60;99.90;;;;;;10429974;28;20578;-82
2021/11/10 16:06:37;;;;;;;24.07;21.53;;;9.50;99.90;;;;;;10448610;28;20233;-82
2021/11/10 16:11:39;;;;;;;27.50;24.40;;;9.40;99.90;;;;;;10428493;28;20213;-82
2021/11/10 16:16:41;;;;;;;25.50;22.80;;;9.30;99.90;;;;;;10430251;28;20225;-82
2021/11/10 16:22:00;;;;;;;26.07;22.37;;;9.20;99.90;;;;;;10426223;28;20202;-82
2021/11/10 16:27:10;;;;;;;26.73;22.03;;;9.20;99.90;;;;;;10460136;28;20209;-82
2021/11/10 16:32:28;;;;;;;25.17;21.23;;;9.00;99.90;;;;;;10456562;28;21139;-82
2021/11/10 16:37:35;;;;;;;25.00;22.47;;;9.00;99.90;;;;;;10459130;28;20201;-82
2021/11/10 16:42:38;;;;;;;23.93;21.50;;;8.90;99.90;;;;;;10457046;28;20217;-82
2021/11/10 16:47:40;;;;;;;22.00;19.53;;;8.80;99.90;;;;;;10442015;28;20664;-82
2021/11/10 16:52:45;;;;;;;20.93;18.93;;;8.70;99.90;;;;;;10441289;28;20290;-82
2021/11/10 16:57:49;;;;;;;20.37;18.20;;;8.60;99.90;;;;;;10460527;28;20197;-82
2021/11/10 17:02:51;;;;;;;19.17;17.20;;;8.60;99.90;;;;;;10437079;28;20236;-82
2021/11/10 17:07:56;;;;;;;21.20;18.90;;;8.50;99.90;;;;;;10468048;28;20235;-82
2021/11/10 17:12:58;;;;;;;23.27;18.60;;;8.50;99.90;;;;;;10457717;28;20648;-82
2021/11/10 17:18:00;;;;;;;22.63;20.00;;;8.40;99.90;;;;;;10453850;28;20201;-83
2021/11/10 17:23:04;;;;;;;27.80;24.63;;;8.40;99.90;;;;;;10469314;28;20229;-83
2021/11/10 17:28:07;;;;;;;39.00;35.10;;;8.30;99.90;;;;;;10470142;28;20224;-83
2021/11/10 17:33:13;;;;;;;23.80;21.37;;;8.30;99.90;;;;;;10468401;28;20221;-82
2021/11/10 17:38:18;;;;;;;25.10;21.93;;;8.30;99.90;;;;;;10469561;28;20545;-83
2021/11/10 17:43:22;;;;;;;25.47;21.83;;;8.30;99.90;;;;;;10467760;28;20217;-82
2021/11/10 17:48:25;;;;;;;26.07;22.03;;;8.20;99.90;;;;;;10450616;28;20273;-82
2021/11/10 17:53:28;;;;;;;25.53;21.23;;;8.20;99.90;;;;;;10450859;28;20225;-82
2021/11/10 17:58:31;;;;;;;26.17;22.30;;;8.20;99.90;;;;;;10467147;28;20209;-82
2021/11/10 18:03:33;;;;;;;26.40;23.77;;;8.20;99.90;;;;;;10471340;28;20236;-82
2021/11/10 18:08:39;;;;;;;28.60;22.90;;;8.10;99.90;;;;;;10506458;28;20272;-82
2021/11/10 18:13:41;;;;;;;32.00;28.20;;;8.10;99.90;;;;;;10464438;28;20809;-82
2021/11/10 18:18:44;;;;;;;29.83;26.53;;;8.10;99.90;;;;;;10479651;28;20676;-82
2021/11/10 18:23:52;;;;;;;25.13;22.37;;;8.10;99.90;;;;;;10483211;28;20227;-82
2021/11/10 18:28:54;;;;;;;23.97;21.43;;;8.10;99.90;;;;;;10488871;28;20197;-82
2021/11/10 18:33:57;;;;;;;22.77;20.47;;;8.10;99.90;;;;;;10485100;28;20289;-81
2021/11/10 18:39:01;;;;;;;27.30;24.10;;;8.00;99.90;;;;;;10481451;28;20197;-81
2021/11/10 18:44:06;;;;;;;26.23;23.40;;;8.00;99.90;;;;;;10463069;28;20221;-81
2021/11/10 18:49:12;;;;;;;23.43;21.03;;;8.00;99.90;;;;;;10480462;28;20197;-81
2021/11/10 18:54:17;;;;;;;24.30;21.90;;;7.90;99.90;;;;;;10480930;28;20320;-82
2021/11/10 18:59:21;;;;;;;27.53;23.47;;;7.90;99.90;;;;;;10479806;28;20201;-82
2021/11/10 19:04:26;;;;;;;24.57;22.00;;;7.90;99.90;;;;;;10479587;28;20232;-82
2021/11/10 19:09:42;;;;;;;24.80;22.17;;;7.80;99.90;;;;;;10466242;28;20213;-81
2021/11/10 19:15:09;;;;;;;26.43;23.63;;;7.80;99.90;;;;;;10480986;28;20220;-81
2021/11/10 19:20:19;;;;;;;30.63;27.63;;;7.80;99.90;;;;;;10461105;28;20213;-81
2021/11/10 19:25:22;;;;;;;31.83;27.63;;;7.80;99.90;;;;;;10461773;28;20225;-81
2021/11/10 19:30:25;;;;;;;31.80;28.67;;;7.80;99.90;;;;;;10459198;28;20205;-81
2021/11/10 19:35:27;;;;;;;30.70;27.30;;;7.80;99.90;;;;;;10479895;28;20228;-81
2021/11/10 19:40:33;;;;;;;24.40;21.83;;;7.80;99.90;;;;;;10478042;28;20273;-82
2021/11/10 19:45:36;;;;;;;35.97;31.07;;;7.80;99.90;;;;;;10481587;28;20591;-82
2021/11/10 19:50:40;;;;;;;28.63;25.63;;;7.80;99.90;;;;;;10463111;28;20304;-82
2021/11/10 19:55:43;;;;;;;25.50;22.70;;;7.80;99.90;;;;;;10463536;28;20688;-82
2021/11/10 20:00:51;;;;;;;31.30;27.90;;;7.70;99.90;;;;;;10479247;28;20201;-81
2021/11/10 20:05:53;;;;;;;26.53;22.77;;;7.70;99.90;;;;;;10478694;28;20615;-81
2021/11/10 20:10:57;;;;;;;23.70;21.00;;;7.70;99.90;;;;;;10484604;28;20201;-82
2021/11/10 20:16:00;;;;;;;20.67;18.57;;;7.60;99.90;;;;;;10477307;28;20233;-82
2021/11/10 20:21:03;;;;;;;23.60;21.10;;;7.60;99.90;;;;;;10478223;28;20212;-82
2021/11/10 20:26:06;;;;;;;23.57;21.17;;;7.60;99.90;;;;;;10472479;28;20244;-82
2021/11/10 20:31:08;;;;;;;24.50;21.73;;;7.50;99.90;;;;;;10478070;28;20240;-81
2021/11/10 20:36:12;;;;;;;25.03;21.63;;;7.50;99.90;;;;;;10481554;28;20221;-82
2021/11/10 20:41:16;;;;;;;23.27;20.83;;;7.50;99.90;;;;;;10480791;28;20208;-82
2021/11/10 20:46:18;;;;;;;24.00;21.60;;;7.50;99.90;;;;;;10454029;28;20225;-81
2021/11/10 20:51:20;;;;;;;24.43;22.00;;;7.50;99.90;;;;;;10464415;28;20197;-81
2021/11/10 20:56:25;;;;;;;24.03;21.53;;;7.50;99.90;;;;;;10462703;28;20247;-81
2021/11/10 21:01:27;;;;;;;24.90;20.17;;;7.40;99.90;;;;;;10443686;28;20201;-81
2021/11/10 21:06:29;;;;;;;22.60;19.80;;;7.40;99.90;;;;;;10450288;28;20252;-81
2021/11/10 21:11:33;;;;;;;22.87;20.30;;;7.40;99.90;;;;;;10460965;28;20228;-81
2021/11/10 21:16:36;;;;;;;27.40;22.87;;;7.40;99.90;;;;;;10429751;28;20738;-81
2021/11/10 21:21:40;;;;;;;24.00;21.23;;;7.30;99.90;;;;;;10454834;28;20295;-81
2021/11/10 21:26:44;;;;;;;24.93;21.40;;;7.40;99.90;;;;;;10454705;28;20221;-81
2021/11/10 21:31:46;;;;;;;27.63;22.30;;;7.40;99.90;;;;;;10430461;28;20283;-81
2021/11/10 21:36:48;;;;;;;23.40;21.00;;;7.30;99.90;;;;;;10438901;28;20716;-81
2021/11/10 21:41:54;;;;;;;23.33;20.87;;;7.30;99.90;;;;;;10437153;28;20212;-81
2021/11/10 21:46:56;;;;;;;22.63;19.30;;;7.20;99.90;;;;;;10434934;28;20625;-81
2021/11/10 21:52:03;;;;;;;22.90;20.47;;;7.20;99.90;;;;;;10446007;28;20297;-81
2021/11/10 21:57:14;;;;;;;25.33;22.63;;;7.10;99.90;;;;;;10460979;28;20229;-81
2021/11/10 22:02:17;;;;;;;23.07;20.30;;;7.00;99.90;;;;;;10439097;28;20317;-81
2021/11/10 22:07:19;;;;;;;21.43;19.20;;;7.00;99.90;;;;;;10462168;28;20753;-81
2021/11/10 22:12:33;;;;;;;23.07;20.77;;;7.00;99.90;;;;;;10453758;28;20217;-81
2021/11/10 22:17:37;;;;;;;22.47;19.80;;;7.00;99.90;;;;;;10442750;28;20699;-81
2021/11/10 22:22:40;;;;;;;25.70;21.97;;;7.00;99.90;;;;;;10490196;28;20228;-81
2021/11/10 22:27:46;;;;;;;28.87;23.10;;;6.90;99.90;;;;;;10448238;28;20205;-81
2021/11/10 22:32:52;;;;;;;25.10;22.50;;;6.90;99.90;;;;;;10448424;28;20225;-81
2021/11/10 22:37:54;;;;;;;25.37;22.70;;;6.90;99.90;;;;;;10456738;28;20542;-81
2021/11/10 22:43:01;;;;;;;23.13;20.73;;;6.90;99.90;;;;;;10440828;28;20563;-81
2021/11/10 22:48:04;;;;;;;34.27;28.30;;;6.90;99.90;;;;;;10461565;28;20614;-81
2021/11/10 22:53:06;;;;;;;22.17;19.93;;;6.90;99.90;;;;;;10465017;28;20252;-81
2021/11/10 22:58:11;;;;;;;27.73;24.63;;;6.90;99.90;;;;;;10466591;28;20197;-81
2021/11/10 23:03:18;;;;;;;29.33;26.20;;;6.90;99.90;;;;;;10463368;28;20666;-81
2021/11/10 23:08:23;;;;;;;31.70;27.63;;;6.80;99.90;;;;;;10447786;28;20205;-81
2021/11/10 23:13:27;;;;;;;26.60;23.13;;;6.80;99.90;;;;;;10469089;28;20227;-81
2021/11/10 23:18:29;;;;;;;35.40;30.07;;;6.80;99.90;;;;;;10463786;28;20197;-81
2021/11/10 23:23:40;;;;;;;26.57;23.40;;;6.70;99.90;;;;;;10436357;28;20218;-81
2021/11/10 23:28:44;;;;;;;28.53;25.70;;;6.70;99.90;;;;;;10462626;28;20208;-81
2021/11/10 23:33:46;;;;;;;26.10;23.50;;;6.70;99.90;;;;;;10463910;28;20217;-81
2021/11/10 23:38:49;;;;;;;31.70;26.40;;;6.70;99.90;;;;;;10446769;28;20197;-81
2021/11/10 23:43:53;;;;;;;26.43;23.73;;;6.70;99.90;;;;;;10460760;28;20213;-81
2021/11/10 23:48:55;;;;;;;25.47;22.90;;;6.70;99.90;;;;;;10451281;28;20685;-81
2021/11/10 23:53:58;;;;;;;30.07;25.47;;;6.60;99.90;;;;;;10447201;28;20417;-81
2021/11/10 23:59:03;;;;;;;24.80;22.20;;;6.60;99.90;;;;;;10436433;28;20211;-81
